sensor_id;sensor_type;location;lat;lon;timestamp;P1;durP1;ratioP1;P2;durP2;ratioP2
36547;SDS011;22551;52.206;4.856;2023-04-22T00:01:44;20.33;;;12.27;;
36547;SDS011;22551;52.206;4.856;2023-04-22T00:06:46;26.13;;;12.35;;
36547;SDS011;22551;52.206;4.856;2023-04-22T00:11:50;23.35;;;12.10;;
36547;SDS011;22551;52.206;4.856;2023-04-22T00:16:52;27.95;;;13.48;;
36547;SDS011;22551;52.206;4.856;2023-04-22T00:21:55;21.70;;;11.48;;
36547;SDS011;22551;52.206;4.856;2023-04-22T00:26:58;23.92;;;11.70;;
36547;SDS011;22551;52.206;4.856;2023-04-22T00:32:00;19.85;;;11.30;;
36547;SDS011;22551;52.206;4.856;2023-04-22T00:37:03;19.42;;;11.07;;
36547;SDS011;22551;52.206;4.856;2023-04-22T00:42:06;25.67;;;11.77;;
36547;SDS011;22551;52.206;4.856;2023-04-22T00:47:08;20.80;;;10.70;;
36547;SDS011;22551;52.206;4.856;2023-04-22T00:52:11;21.85;;;11.48;;
36547;SDS011;22551;52.206;4.856;2023-04-22T00:57:14;20.38;;;10.73;;
36547;SDS011;22551;52.206;4.856;2023-04-22T01:02:17;19.00;;;10.68;;
36547;SDS011;22551;52.206;4.856;2023-04-22T01:07:19;21.50;;;11.15;;
36547;SDS011;22551;52.206;4.856;2023-04-22T01:12:23;24.20;;;12.48;;
36547;SDS011;22551;52.206;4.856;2023-04-22T01:17:25;26.98;;;13.75;;
36547;SDS011;22551;52.206;4.856;2023-04-22T01:22:28;24.27;;;12.98;;
36547;SDS011;22551;52.206;4.856;2023-04-22T01:27:37;21.45;;;11.82;;
36547;SDS011;22551;52.206;4.856;2023-04-22T01:32:40;28.48;;;13.50;;
36547;SDS011;22551;52.206;4.856;2023-04-22T01:37:43;23.05;;;12.73;;
36547;SDS011;22551;52.206;4.856;2023-04-22T01:42:46;25.88;;;13.48;;
36547;SDS011;22551;52.206;4.856;2023-04-22T01:47:49;28.58;;;13.13;;
36547;SDS011;22551;52.206;4.856;2023-04-22T01:52:51;28.48;;;13.68;;
36547;SDS011;22551;52.206;4.856;2023-04-22T01:57:55;22.77;;;11.75;;
36547;SDS011;22551;52.206;4.856;2023-04-22T02:02:57;27.35;;;13.15;;
36547;SDS011;22551;52.206;4.856;2023-04-22T02:07:59;28.33;;;13.13;;
36547;SDS011;22551;52.206;4.856;2023-04-22T02:13:03;26.40;;;13.93;;
36547;SDS011;22551;52.206;4.856;2023-04-22T02:18:05;26.02;;;14.02;;
36547;SDS011;22551;52.206;4.856;2023-04-22T02:23:09;25.20;;;13.45;;
36547;SDS011;22551;52.206;4.856;2023-04-22T02:28:13;23.75;;;12.13;;
36547;SDS011;22551;52.206;4.856;2023-04-22T02:33:15;24.30;;;12.23;;
36547;SDS011;22551;52.206;4.856;2023-04-22T02:38:17;24.63;;;12.52;;
36547;SDS011;22551;52.206;4.856;2023-04-22T02:43:21;27.23;;;13.82;;
36547;SDS011;22551;52.206;4.856;2023-04-22T02:48:23;27.20;;;13.13;;
36547;SDS011;22551;52.206;4.856;2023-04-22T02:53:25;24.73;;;13.00;;
36547;SDS011;22551;52.206;4.856;2023-04-22T02:58:29;23.33;;;12.65;;
36547;SDS011;22551;52.206;4.856;2023-04-22T03:03:31;28.40;;;13.88;;
36547;SDS011;22551;52.206;4.856;2023-04-22T03:08:33;27.23;;;12.80;;
36547;SDS011;22551;52.206;4.856;2023-04-22T03:13:37;24.38;;;12.45;;
36547;SDS011;22551;52.206;4.856;2023-04-22T03:18:39;23.88;;;12.40;;
36547;SDS011;22551;52.206;4.856;2023-04-22T03:23:42;25.77;;;12.15;;
36547;SDS011;22551;52.206;4.856;2023-04-22T03:28:45;22.67;;;12.48;;
36547;SDS011;22551;52.206;4.856;2023-04-22T03:33:47;24.90;;;12.73;;
36547;SDS011;22551;52.206;4.856;2023-04-22T03:38:50;23.05;;;11.82;;
36547;SDS011;22551;52.206;4.856;2023-04-22T03:43:53;24.02;;;12.27;;
36547;SDS011;22551;52.206;4.856;2023-04-22T03:48:57;21.70;;;11.43;;
36547;SDS011;22551;52.206;4.856;2023-04-22T03:53:59;26.75;;;12.43;;
36547;SDS011;22551;52.206;4.856;2023-04-22T03:59:03;23.40;;;11.57;;
36547;SDS011;22551;52.206;4.856;2023-04-22T04:04:05;21.52;;;11.57;;
36547;SDS011;22551;52.206;4.856;2023-04-22T04:09:07;22.73;;;11.93;;
36547;SDS011;22551;52.206;4.856;2023-04-22T04:14:11;22.98;;;12.55;;
36547;SDS011;22551;52.206;4.856;2023-04-22T04:19:13;23.80;;;11.63;;
36547;SDS011;22551;52.206;4.856;2023-04-22T04:24:16;22.35;;;12.20;;
36547;SDS011;22551;52.206;4.856;2023-04-22T04:29:19;23.15;;;12.80;;
36547;SDS011;22551;52.206;4.856;2023-04-22T04:34:22;20.98;;;11.52;;
36547;SDS011;22551;52.206;4.856;2023-04-22T04:39:24;26.40;;;12.55;;
36547;SDS011;22551;52.206;4.856;2023-04-22T04:44:29;21.48;;;12.32;;
36547;SDS011;22551;52.206;4.856;2023-04-22T04:49:31;23.95;;;12.32;;
36547;SDS011;22551;52.206;4.856;2023-04-22T04:54:38;24.42;;;12.68;;
36547;SDS011;22551;52.206;4.856;2023-04-22T04:59:42;24.13;;;12.65;;
36547;SDS011;22551;52.206;4.856;2023-04-22T05:04:44;27.80;;;13.27;;
36547;SDS011;22551;52.206;4.856;2023-04-22T05:09:46;21.98;;;11.50;;
36547;SDS011;22551;52.206;4.856;2023-04-22T05:14:50;25.48;;;12.80;;
36547;SDS011;22551;52.206;4.856;2023-04-22T05:19:52;23.08;;;11.43;;
36547;SDS011;22551;52.206;4.856;2023-04-22T05:24:55;19.05;;;10.10;;
36547;SDS011;22551;52.206;4.856;2023-04-22T05:29:58;23.65;;;12.38;;
36547;SDS011;22551;52.206;4.856;2023-04-22T05:35:00;24.95;;;13.23;;
36547;SDS011;22551;52.206;4.856;2023-04-22T05:40:03;27.02;;;14.18;;
36547;SDS011;22551;52.206;4.856;2023-04-22T05:45:09;30.65;;;14.60;;
36547;SDS011;22551;52.206;4.856;2023-04-22T05:50:13;29.23;;;15.83;;
36547;SDS011;22551;52.206;4.856;2023-04-22T05:55:15;27.45;;;15.38;;
36547;SDS011;22551;52.206;4.856;2023-04-22T06:00:19;34.35;;;16.77;;
36547;SDS011;22551;52.206;4.856;2023-04-22T06:05:21;31.58;;;15.93;;
36547;SDS011;22551;52.206;4.856;2023-04-22T06:10:23;30.52;;;15.00;;
36547;SDS011;22551;52.206;4.856;2023-04-22T06:15:27;29.25;;;14.77;;
36547;SDS011;22551;52.206;4.856;2023-04-22T06:20:29;30.05;;;15.50;;
36547;SDS011;22551;52.206;4.856;2023-04-22T06:25:31;30.33;;;14.82;;
36547;SDS011;22551;52.206;4.856;2023-04-22T06:30:35;30.60;;;15.55;;
36547;SDS011;22551;52.206;4.856;2023-04-22T06:35:37;27.83;;;14.45;;
36547;SDS011;22551;52.206;4.856;2023-04-22T06:40:40;30.40;;;16.58;;
36547;SDS011;22551;52.206;4.856;2023-04-22T06:45:44;28.90;;;14.85;;
36547;SDS011;22551;52.206;4.856;2023-04-22T06:50:46;26.75;;;14.88;;
36547;SDS011;22551;52.206;4.856;2023-04-22T06:55:48;34.92;;;17.05;;
36547;SDS011;22551;52.206;4.856;2023-04-22T07:00:51;32.85;;;15.85;;
36547;SDS011;22551;52.206;4.856;2023-04-22T07:05:53;29.63;;;16.30;;
36547;SDS011;22551;52.206;4.856;2023-04-22T07:10:56;30.45;;;14.82;;
36547;SDS011;22551;52.206;4.856;2023-04-22T07:15:59;24.50;;;13.57;;
36547;SDS011;22551;52.206;4.856;2023-04-22T07:21:02;23.90;;;13.43;;
36547;SDS011;22551;52.206;4.856;2023-04-22T07:26:04;22.90;;;12.15;;
36547;SDS011;22551;52.206;4.856;2023-04-22T07:31:08;21.40;;;12.52;;
36547;SDS011;22551;52.206;4.856;2023-04-22T07:36:10;20.75;;;12.02;;
36547;SDS011;22551;52.206;4.856;2023-04-22T07:41:12;22.00;;;11.70;;
36547;SDS011;22551;52.206;4.856;2023-04-22T07:46:16;16.63;;;10.82;;
36547;SDS011;22551;52.206;4.856;2023-04-22T07:51:18;16.73;;;10.57;;
36547;SDS011;22551;52.206;4.856;2023-04-22T07:56:21;16.98;;;10.65;;
36547;SDS011;22551;52.206;4.856;2023-04-22T08:01:24;18.20;;;10.32;;
36547;SDS011;22551;52.206;4.856;2023-04-22T08:06:26;17.13;;;9.98;;
36547;SDS011;22551;52.206;4.856;2023-04-22T08:11:29;15.05;;;10.35;;
36547;SDS011;22551;52.206;4.856;2023-04-22T08:16:32;18.63;;;11.30;;
36547;SDS011;22551;52.206;4.856;2023-04-22T08:21:34;16.08;;;10.07;;
36547;SDS011;22551;52.206;4.856;2023-04-22T08:26:37;17.35;;;9.98;;
36547;SDS011;22551;52.206;4.856;2023-04-22T08:31:41;17.33;;;10.18;;
36547;SDS011;22551;52.206;4.856;2023-04-22T08:36:43;13.53;;;8.93;;
36547;SDS011;22551;52.206;4.856;2023-04-22T08:41:46;12.05;;;7.85;;
36547;SDS011;22551;52.206;4.856;2023-04-22T08:46:51;13.70;;;7.72;;
36547;SDS011;22551;52.206;4.856;2023-04-22T08:51:53;12.15;;;7.88;;
36547;SDS011;22551;52.206;4.856;2023-04-22T08:56:56;12.18;;;8.05;;
36547;SDS011;22551;52.206;4.856;2023-04-22T09:02:00;11.18;;;8.00;;
36547;SDS011;22551;52.206;4.856;2023-04-22T09:07:05;9.68;;;6.82;;
36547;SDS011;22551;52.206;4.856;2023-04-22T09:12:08;8.57;;;5.82;;
36547;SDS011;22551;52.206;4.856;2023-04-22T09:17:11;9.57;;;6.15;;
36547;SDS011;22551;52.206;4.856;2023-04-22T09:22:16;9.77;;;6.80;;
36547;SDS011;22551;52.206;4.856;2023-04-22T09:27:18;11.13;;;7.35;;
36547;SDS011;22551;52.206;4.856;2023-04-22T09:32:25;10.02;;;6.45;;
36547;SDS011;22551;52.206;4.856;2023-04-22T09:37:28;8.03;;;6.43;;
36547;SDS011;22551;52.206;4.856;2023-04-22T09:42:30;8.70;;;5.97;;
36547;SDS011;22551;52.206;4.856;2023-04-22T09:47:35;8.73;;;5.70;;
36547;SDS011;22551;52.206;4.856;2023-04-22T09:52:41;7.80;;;5.70;;
36547;SDS011;22551;52.206;4.856;2023-04-22T09:57:43;9.02;;;5.90;;
36547;SDS011;22551;52.206;4.856;2023-04-22T10:02:47;8.00;;;5.43;;
36547;SDS011;22551;52.206;4.856;2023-04-22T10:07:49;8.70;;;6.10;;
36547;SDS011;22551;52.206;4.856;2023-04-22T10:12:51;7.10;;;5.35;;
36547;SDS011;22551;52.206;4.856;2023-04-22T10:17:55;7.60;;;5.38;;
36547;SDS011;22551;52.206;4.856;2023-04-22T10:22:59;8.57;;;5.80;;
36547;SDS011;22551;52.206;4.856;2023-04-22T10:28:05;8.93;;;6.43;;
36547;SDS011;22551;52.206;4.856;2023-04-22T10:38:41;9.40;;;5.78;;
36547;SDS011;22551;52.206;4.856;2023-04-22T10:44:17;9.82;;;5.93;;
36547;SDS011;22551;52.206;4.856;2023-04-22T10:49:22;8.57;;;6.00;;
36547;SDS011;22551;52.206;4.856;2023-04-22T10:59:58;7.55;;;6.03;;
36547;SDS011;22551;52.206;4.856;2023-04-22T11:15:50;14.15;;;7.30;;
36547;SDS011;22551;52.206;4.856;2023-04-22T11:20:57;12.10;;;7.78;;
36547;SDS011;22551;52.206;4.856;2023-04-22T11:26:05;13.02;;;9.02;;
36547;SDS011;22551;52.206;4.856;2023-04-22T11:31:07;13.55;;;8.55;;
36547;SDS011;22551;52.206;4.856;2023-04-22T11:36:11;13.45;;;8.35;;
36547;SDS011;22551;52.206;4.856;2023-04-22T11:41:19;15.73;;;8.75;;
36547;SDS011;22551;52.206;4.856;2023-04-22T11:46:29;14.13;;;9.10;;
36547;SDS011;22551;52.206;4.856;2023-04-22T11:56:53;14.27;;;9.40;;
36547;SDS011;22551;52.206;4.856;2023-04-22T12:01:56;15.65;;;9.30;;
36547;SDS011;22551;52.206;4.856;2023-04-22T12:06:59;17.95;;;10.30;;
36547;SDS011;22551;52.206;4.856;2023-04-22T12:12:02;22.63;;;11.70;;
36547;SDS011;22551;52.206;4.856;2023-04-22T12:17:05;24.38;;;12.65;;
36547;SDS011;22551;52.206;4.856;2023-04-22T12:22:12;27.60;;;14.88;;
36547;SDS011;22551;52.206;4.856;2023-04-22T12:32:28;26.73;;;13.23;;
36547;SDS011;22551;52.206;4.856;2023-04-22T12:37:31;31.55;;;13.95;;
36547;SDS011;22551;52.206;4.856;2023-04-22T12:42:33;34.58;;;16.00;;
36547;SDS011;22551;52.206;4.856;2023-04-22T12:47:36;30.48;;;15.60;;
36547;SDS011;22551;52.206;4.856;2023-04-22T12:52:39;32.05;;;15.90;;
36547;SDS011;22551;52.206;4.856;2023-04-22T12:57:43;36.25;;;15.50;;
36547;SDS011;22551;52.206;4.856;2023-04-22T13:02:46;30.17;;;15.37;;
36547;SDS011;22551;52.206;4.856;2023-04-22T13:07:51;31.30;;;15.40;;
36547;SDS011;22551;52.206;4.856;2023-04-22T13:12:54;33.45;;;15.18;;
36547;SDS011;22551;52.206;4.856;2023-04-22T13:17:57;29.33;;;14.55;;
36547;SDS011;22551;52.206;4.856;2023-04-22T13:23:00;27.95;;;13.77;;
36547;SDS011;22551;52.206;4.856;2023-04-22T13:28:03;29.58;;;14.05;;
36547;SDS011;22551;52.206;4.856;2023-04-22T13:33:05;30.65;;;15.88;;
36547;SDS011;22551;52.206;4.856;2023-04-22T13:38:09;29.05;;;14.60;;
36547;SDS011;22551;52.206;4.856;2023-04-22T13:43:11;26.23;;;14.50;;
36547;SDS011;22551;52.206;4.856;2023-04-22T13:48:13;30.02;;;16.38;;
36547;SDS011;22551;52.206;4.856;2023-04-22T13:53:17;25.10;;;13.50;;
36547;SDS011;22551;52.206;4.856;2023-04-22T14:03:23;32.13;;;14.57;;
36547;SDS011;22551;52.206;4.856;2023-04-22T14:08:26;29.70;;;14.48;;
36547;SDS011;22551;52.206;4.856;2023-04-22T14:13:29;28.55;;;15.20;;
36547;SDS011;22551;52.206;4.856;2023-04-22T14:18:31;31.83;;;14.82;;
36547;SDS011;22551;52.206;4.856;2023-04-22T14:23:36;29.02;;;14.05;;
36547;SDS011;22551;52.206;4.856;2023-04-22T14:28:40;25.95;;;14.65;;
36547;SDS011;22551;52.206;4.856;2023-04-22T14:33:42;28.95;;;14.45;;
36547;SDS011;22551;52.206;4.856;2023-04-22T14:38:46;31.80;;;16.67;;
36547;SDS011;22551;52.206;4.856;2023-04-22T14:43:48;29.77;;;14.45;;
36547;SDS011;22551;52.206;4.856;2023-04-22T14:48:51;32.55;;;15.43;;
36547;SDS011;22551;52.206;4.856;2023-04-22T14:53:54;25.23;;;13.95;;
36547;SDS011;22551;52.206;4.856;2023-04-22T14:58:56;32.92;;;15.32;;
36547;SDS011;22551;52.206;4.856;2023-04-22T15:03:59;36.33;;;16.00;;
36547;SDS011;22551;52.206;4.856;2023-04-22T15:09:02;26.10;;;13.07;;
36547;SDS011;22551;52.206;4.856;2023-04-22T15:14:05;21.83;;;11.65;;
36547;SDS011;22551;52.206;4.856;2023-04-22T15:19:07;22.60;;;11.73;;
36547;SDS011;22551;52.206;4.856;2023-04-22T15:24:11;21.63;;;11.85;;
36547;SDS011;22551;52.206;4.856;2023-04-22T15:29:13;25.48;;;12.88;;
36547;SDS011;22551;52.206;4.856;2023-04-22T15:34:15;26.70;;;13.82;;
36547;SDS011;22551;52.206;4.856;2023-04-22T15:39:19;28.00;;;13.27;;
36547;SDS011;22551;52.206;4.856;2023-04-22T15:44:21;32.33;;;14.60;;
36547;SDS011;22551;52.206;4.856;2023-04-22T15:49:24;29.70;;;14.07;;
36547;SDS011;22551;52.206;4.856;2023-04-22T15:54:27;36.15;;;15.93;;
36547;SDS011;22551;52.206;4.856;2023-04-22T15:59:31;34.78;;;14.23;;
36547;SDS011;22551;52.206;4.856;2023-04-22T16:04:33;27.40;;;13.05;;
36547;SDS011;22551;52.206;4.856;2023-04-22T16:09:36;33.83;;;13.73;;
36547;SDS011;22551;52.206;4.856;2023-04-22T16:14:38;38.70;;;15.30;;
36547;SDS011;22551;52.206;4.856;2023-04-22T16:19:41;36.08;;;15.60;;
36547;SDS011;22551;52.206;4.856;2023-04-22T16:24:45;41.70;;;17.33;;
36547;SDS011;22551;52.206;4.856;2023-04-22T16:29:47;37.08;;;15.65;;
36547;SDS011;22551;52.206;4.856;2023-04-22T16:34:49;31.25;;;13.65;;
36547;SDS011;22551;52.206;4.856;2023-04-22T16:39:53;30.63;;;13.93;;
36547;SDS011;22551;52.206;4.856;2023-04-22T16:44:55;35.40;;;14.75;;
36547;SDS011;22551;52.206;4.856;2023-04-22T16:49:57;32.83;;;13.57;;
36547;SDS011;22551;52.206;4.856;2023-04-22T16:55:01;30.92;;;12.23;;
36547;SDS011;22551;52.206;4.856;2023-04-22T17:00:05;35.43;;;13.80;;
36547;SDS011;22551;52.206;4.856;2023-04-22T17:05:08;27.30;;;12.82;;
36547;SDS011;22551;52.206;4.856;2023-04-22T17:10:12;27.83;;;12.50;;
36547;SDS011;22551;52.206;4.856;2023-04-22T17:15:14;30.35;;;12.70;;
36547;SDS011;22551;52.206;4.856;2023-04-22T17:20:17;30.73;;;12.88;;
36547;SDS011;22551;52.206;4.856;2023-04-22T17:25:20;31.25;;;12.90;;
36547;SDS011;22551;52.206;4.856;2023-04-22T17:30:23;33.95;;;12.93;;
36547;SDS011;22551;52.206;4.856;2023-04-22T17:35:25;31.55;;;13.15;;
36547;SDS011;22551;52.206;4.856;2023-04-22T17:40:28;28.75;;;12.73;;
36547;SDS011;22551;52.206;4.856;2023-04-22T17:45:31;31.25;;;12.30;;
36547;SDS011;22551;52.206;4.856;2023-04-22T17:50:33;28.77;;;11.65;;
36547;SDS011;22551;52.206;4.856;2023-04-22T17:55:37;25.95;;;12.38;;
36547;SDS011;22551;52.206;4.856;2023-04-22T18:00:39;26.55;;;13.35;;
36547;SDS011;22551;52.206;4.856;2023-04-22T18:05:41;28.90;;;13.30;;
36547;SDS011;22551;52.206;4.856;2023-04-22T18:10:45;24.52;;;13.10;;
36547;SDS011;22551;52.206;4.856;2023-04-22T18:15:48;30.13;;;13.05;;
36547;SDS011;22551;52.206;4.856;2023-04-22T18:20:51;28.52;;;13.57;;
36547;SDS011;22551;52.206;4.856;2023-04-22T18:25:55;30.70;;;14.05;;
36547;SDS011;22551;52.206;4.856;2023-04-22T18:30:57;29.48;;;13.23;;
36547;SDS011;22551;52.206;4.856;2023-04-22T18:35:59;32.30;;;13.35;;
36547;SDS011;22551;52.206;4.856;2023-04-22T18:41:03;28.98;;;14.05;;
36547;SDS011;22551;52.206;4.856;2023-04-22T18:46:06;27.75;;;13.32;;
36547;SDS011;22551;52.206;4.856;2023-04-22T18:51:08;28.02;;;13.77;;
36547;SDS011;22551;52.206;4.856;2023-04-22T18:56:12;34.03;;;14.23;;
36547;SDS011;22551;52.206;4.856;2023-04-22T19:01:14;27.80;;;13.60;;
36547;SDS011;22551;52.206;4.856;2023-04-22T19:06:17;33.88;;;14.38;;
36547;SDS011;22551;52.206;4.856;2023-04-22T19:11:21;28.08;;;13.38;;
36547;SDS011;22551;52.206;4.856;2023-04-22T19:16:24;30.00;;;13.48;;
36547;SDS011;22551;52.206;4.856;2023-04-22T19:21:26;37.75;;;16.45;;
36547;SDS011;22551;52.206;4.856;2023-04-22T19:26:30;37.00;;;17.27;;
36547;SDS011;22551;52.206;4.856;2023-04-22T19:31:32;32.17;;;14.77;;
36547;SDS011;22551;52.206;4.856;2023-04-22T19:36:34;37.15;;;15.45;;
36547;SDS011;22551;52.206;4.856;2023-04-22T19:41:38;36.63;;;16.00;;
36547;SDS011;22551;52.206;4.856;2023-04-22T19:46:41;42.38;;;17.75;;
36547;SDS011;22551;52.206;4.856;2023-04-22T19:51:44;39.65;;;16.90;;
36547;SDS011;22551;52.206;4.856;2023-04-22T19:56:48;37.63;;;16.05;;
36547;SDS011;22551;52.206;4.856;2023-04-22T20:01:52;35.33;;;16.63;;
36547;SDS011;22551;52.206;4.856;2023-04-22T20:06:54;36.67;;;15.80;;
36547;SDS011;22551;52.206;4.856;2023-04-22T20:12:03;36.67;;;14.93;;
36547;SDS011;22551;52.206;4.856;2023-04-22T20:17:06;43.97;;;18.65;;
36547;SDS011;22551;52.206;4.856;2023-04-22T20:22:09;43.95;;;17.75;;
36547;SDS011;22551;52.206;4.856;2023-04-22T20:27:14;43.72;;;18.73;;
36547;SDS011;22551;52.206;4.856;2023-04-22T20:32:16;36.55;;;17.23;;
36547;SDS011;22551;52.206;4.856;2023-04-22T20:37:19;38.58;;;16.77;;
36547;SDS011;22551;52.206;4.856;2023-04-22T20:42:24;38.33;;;17.35;;
36547;SDS011;22551;52.206;4.856;2023-04-22T20:47:27;43.95;;;19.38;;
36547;SDS011;22551;52.206;4.856;2023-04-22T20:52:30;50.95;;;20.30;;
36547;SDS011;22551;52.206;4.856;2023-04-22T20:57:33;42.42;;;19.33;;
36547;SDS011;22551;52.206;4.856;2023-04-22T21:02:35;48.55;;;19.70;;
36547;SDS011;22551;52.206;4.856;2023-04-22T21:07:39;53.40;;;21.20;;
36547;SDS011;22551;52.206;4.856;2023-04-22T21:12:45;44.28;;;18.98;;
36547;SDS011;22551;52.206;4.856;2023-04-22T21:17:47;41.60;;;20.70;;
36547;SDS011;22551;52.206;4.856;2023-04-22T21:22:55;49.45;;;20.98;;
36547;SDS011;22551;52.206;4.856;2023-04-22T21:28:00;49.78;;;21.45;;
36547;SDS011;22551;52.206;4.856;2023-04-22T21:33:03;52.95;;;21.90;;
36547;SDS011;22551;52.206;4.856;2023-04-22T21:38:05;59.83;;;24.33;;
36547;SDS011;22551;52.206;4.856;2023-04-22T21:43:10;56.83;;;23.60;;
36547;SDS011;22551;52.206;4.856;2023-04-22T21:48:12;60.33;;;23.85;;
36547;SDS011;22551;52.206;4.856;2023-04-22T21:53:14;60.42;;;25.23;;
36547;SDS011;22551;52.206;4.856;2023-04-22T21:58:19;58.55;;;24.50;;
36547;SDS011;22551;52.206;4.856;2023-04-22T22:03:23;55.08;;;24.30;;
36547;SDS011;22551;52.206;4.856;2023-04-22T22:08:25;61.65;;;25.42;;
36547;SDS011;22551;52.206;4.856;2023-04-22T22:13:29;54.97;;;22.73;;
36547;SDS011;22551;52.206;4.856;2023-04-22T22:18:32;57.08;;;23.40;;
36547;SDS011;22551;52.206;4.856;2023-04-22T22:23:34;58.40;;;24.98;;
36547;SDS011;22551;52.206;4.856;2023-04-22T22:28:38;60.58;;;23.27;;
36547;SDS011;22551;52.206;4.856;2023-04-22T22:33:40;61.78;;;24.83;;
36547;SDS011;22551;52.206;4.856;2023-04-22T22:38:44;63.53;;;25.85;;
36547;SDS011;22551;52.206;4.856;2023-04-22T22:43:47;56.00;;;25.40;;
36547;SDS011;22551;52.206;4.856;2023-04-22T22:48:50;53.78;;;23.38;;
36547;SDS011;22551;52.206;4.856;2023-04-22T22:53:52;56.60;;;25.27;;
36547;SDS011;22551;52.206;4.856;2023-04-22T22:58:55;57.10;;;25.77;;
36547;SDS011;22551;52.206;4.856;2023-04-22T23:03:58;62.17;;;25.58;;
36547;SDS011;22551;52.206;4.856;2023-04-22T23:09:00;56.33;;;24.88;;
36547;SDS011;22551;52.206;4.856;2023-04-22T23:14:04;61.28;;;24.50;;
36547;SDS011;22551;52.206;4.856;2023-04-22T23:19:08;59.50;;;25.75;;
36547;SDS011;22551;52.206;4.856;2023-04-22T23:24:12;54.03;;;25.05;;
36547;SDS011;22551;52.206;4.856;2023-04-22T23:29:17;57.55;;;25.17;;
36547;SDS011;22551;52.206;4.856;2023-04-22T23:34:21;63.88;;;26.27;;
36547;SDS011;22551;52.206;4.856;2023-04-22T23:39:23;57.65;;;24.98;;
36547;SDS011;22551;52.206;4.856;2023-04-22T23:44:27;60.25;;;25.45;;
36547;SDS011;22551;52.206;4.856;2023-04-22T23:49:29;57.03;;;25.45;;
36547;SDS011;22551;52.206;4.856;2023-04-22T23:54:32;59.00;;;23.88;;
36547;SDS011;22551;52.206;4.856;2023-04-22T23:59:36;59.50;;;24.38;;
